Accueil
METAR-TAF:

METAR-TAF

Aéroports :

Aéroport international Saint-Gall-Altenrhein

Saint-Gall, Suisse

latitude: 47-29-06N, longitude: 009-33-43E, altitude: 398 m

Observation

Le bulletin a été fait il y a 7 minutes, à 01:20 UTC
Vent 2 kt de direction variable
Température 13°C
Humidité 82%
Pression 1014 hPa
Visibilité 10 km ou plus

METAR: LSZR 210120Z AUTO VRB02KT 9999 NCD 13/10 Q1014

Heure: 03:27 (01:27 UTC)

Prévision

Le bulletin a été fait il y a 11 heures et 2 minutes, à 14:25 UTC
Prévision valable du 20 à 15 UTC au 20 à 24 UTC
Vent 7 kt de est/sud-est
Visibilité 10 km ou plus
pas de nuages en-dessous de 1500 mètres et pas de cumulonimbus.
Probabilité 40% :
Temporairement
du 20 à 15 UTC au 20 à 19 UTC
Quelques nuages à une hauteur de 4000 ft, Cumulus congestus.
Nuages fragmentés à une hauteur de 5000 ft
averses de pluie

TAF: LSZR 201425Z 2015/2024 11007KT CAVOK PROB40 TEMPO 2015/2019 SHRA FEW040TCU BKN050

Observations et prévisions météorologiques de plus de 4000 aéroports (messages METAR et TAF).

Les stations disponibles sont représentées par des disques jaunes et rouges sur la carte.

Passer la souris dessus pour voir le nom de la station.

Cliquer dessus pour voir les observations et prévisions météorologiques.

Pour changer de carte: cliquez sur les boutons verts avec une croix noire pour zoomer, sur le bouton vert avec un tiret pour effectuer un zoom arrière, ou sur les flèches vertes pour les cartes adjacentes.


METAR-TAF: